createdAt,value
2018-08-23T00:01:00.059Z,27.46
2018-08-23T00:03:26.090Z,27.30
2018-08-23T00:05:52.030Z,27.11
2018-08-23T00:08:18.008Z,27.53
2018-08-23T00:10:43.953Z,27.36
2018-08-23T00:13:09.957Z,27.47
2018-08-23T00:15:35.907Z,27.51
2018-08-23T00:18:01.889Z,27.58
2018-08-23T00:20:27.824Z,27.41
2018-08-23T00:22:53.828Z,27.50
2018-08-23T00:25:19.826Z,27.34
2018-08-23T00:27:45.804Z,27.21
2018-08-23T00:30:11.745Z,26.95
2018-08-23T00:32:37.692Z,27.17
2018-08-23T00:35:03.656Z,27.12
2018-08-23T00:37:29.656Z,27.07
2018-08-23T00:39:55.627Z,27.18
2018-08-23T00:42:21.597Z,27.25
2018-08-23T00:44:47.583Z,27.24
2018-08-23T00:47:13.573Z,27.29
2018-08-23T00:49:39.529Z,27.29
2018-08-23T00:52:05.485Z,27.19
2018-08-23T00:54:31.434Z,27.10
2018-08-23T00:56:57.405Z,27.05
2018-08-23T00:59:23.349Z,26.89
2018-08-23T01:01:49.301Z,26.82
2018-08-23T01:04:15.292Z,26.82
2018-08-23T01:06:41.491Z,26.55
2018-08-23T01:09:07.456Z,26.37
2018-08-23T01:11:33.436Z,26.95
2018-08-23T01:13:59.373Z,26.73
2018-08-23T01:16:25.328Z,27.14
2018-08-23T01:18:51.298Z,27.12
2018-08-23T01:21:17.267Z,27.04
2018-08-23T01:23:43.286Z,26.48
2018-08-23T01:26:09.228Z,26.79
2018-08-23T01:28:35.188Z,26.95
2018-08-23T01:31:01.141Z,26.89
2018-08-23T01:33:27.103Z,26.96
2018-08-23T01:35:53.058Z,26.70
2018-08-23T01:38:19.016Z,26.33
2018-08-23T01:40:45.002Z,26.41
2018-08-23T01:43:10.954Z,26.52
2018-08-23T01:45:36.895Z,26.50
2018-08-23T01:48:02.875Z,26.38
2018-08-23T01:50:28.827Z,26.17
2018-08-23T01:52:54.818Z,26.54
2018-08-23T01:55:20.788Z,26.56
2018-08-23T01:57:46.744Z,26.31
2018-08-23T02:00:12.725Z,26.46
2018-08-23T02:02:38.787Z,26.39
2018-08-23T02:05:04.737Z,26.44
2018-08-23T02:07:30.720Z,26.52
2018-08-23T02:09:56.676Z,26.59
2018-08-23T02:12:22.667Z,26.66
2018-08-23T02:14:48.604Z,26.41
2018-08-23T02:17:14.590Z,26.63
2018-08-23T02:19:40.534Z,26.67
2018-08-23T02:22:06.519Z,26.76
2018-08-23T02:24:32.465Z,26.77
2018-08-23T02:26:58.428Z,26.59
2018-08-23T02:29:24.368Z,26.58
2018-08-23T02:31:50.335Z,26.54
2018-08-23T02:34:16.343Z,26.35
2018-08-23T02:36:42.316Z,26.30
2018-08-23T02:39:08.281Z,26.45
2018-08-23T02:41:34.234Z,26.27
2018-08-23T02:44:00.218Z,26.32
2018-08-23T02:46:26.155Z,26.42
2018-08-23T02:48:52.136Z,26.34
2018-08-23T02:51:18.113Z,26.37
2018-08-23T02:53:44.069Z,26.39
2018-08-23T02:56:10.029Z,26.33
2018-08-23T02:58:35.985Z,26.30
2018-08-23T03:01:01.960Z,26.17
2018-08-23T03:03:27.927Z,26.24
2018-08-23T03:05:53.923Z,26.02
2018-08-23T03:08:19.897Z,26.30
2018-08-23T03:10:45.894Z,26.42
2018-08-23T03:13:11.940Z,26.31
2018-08-23T03:15:37.892Z,26.19
2018-08-23T03:18:03.872Z,26.08
2018-08-23T03:20:29.835Z,26.19
2018-08-23T03:22:55.849Z,25.95
2018-08-23T03:25:21.822Z,26.15
2018-08-23T03:27:47.763Z,26.13
2018-08-23T03:30:13.813Z,26.08
2018-08-23T03:32:39.728Z,25.85
2018-08-23T03:35:05.673Z,26.05
2018-08-23T03:37:31.637Z,26.28
2018-08-23T03:39:57.575Z,26.25
2018-08-23T03:42:23.556Z,26.17
2018-08-23T03:44:49.516Z,26.04
2018-08-23T03:47:15.514Z,26.07
2018-08-23T03:49:41.559Z,26.20
2018-08-23T03:52:07.811Z,26.29
2018-08-23T03:54:33.767Z,26.16
2018-08-23T03:56:59.737Z,26.29
2018-08-23T03:59:25.705Z,26.10
2018-08-23T04:01:51.672Z,25.93
2018-08-23T04:04:17.636Z,25.83
2018-08-23T04:06:43.631Z,25.90
2018-08-23T04:09:09.579Z,25.97
2018-08-23T04:11:35.516Z,25.67
2018-08-23T04:14:01.440Z,25.75
2018-08-23T04:16:27.390Z,25.71
2018-08-23T04:18:53.373Z,25.91
2018-08-23T04:21:19.366Z,25.74
2018-08-23T04:23:45.323Z,25.80
2018-08-23T04:26:11.284Z,25.73
2018-08-23T04:28:37.236Z,25.82
2018-08-23T04:31:03.171Z,26.05
2018-08-23T04:33:29.124Z,25.87
2018-08-23T04:35:55.080Z,25.87
2018-08-23T04:38:21.037Z,25.86
2018-08-23T04:40:47.037Z,25.99
2018-08-23T04:43:13.053Z,25.87
2018-08-23T04:45:38.974Z,26.05
2018-08-23T04:48:04.922Z,26.14
2018-08-23T04:50:30.906Z,26.25
2018-08-23T04:52:56.848Z,26.34
2018-08-23T04:55:22.820Z,25.92
2018-08-23T04:57:48.842Z,26.24
2018-08-23T05:00:14.872Z,26.49
2018-08-23T05:02:40.835Z,26.56
2018-08-23T05:05:06.838Z,26.55
2018-08-23T05:07:32.827Z,26.53
2018-08-23T05:09:58.769Z,26.74
2018-08-23T05:12:24.717Z,26.90
2018-08-23T05:14:50.694Z,26.61
2018-08-23T05:17:16.656Z,26.57
2018-08-23T05:19:42.630Z,26.83
2018-08-23T05:22:08.640Z,26.99
2018-08-23T05:24:34.604Z,26.87
2018-08-23T05:27:00.580Z,26.93
2018-08-23T05:29:26.554Z,26.95
2018-08-23T05:31:52.514Z,27.03
2018-08-23T05:34:18.502Z,27.39
2018-08-23T05:36:44.472Z,27.35
2018-08-23T05:39:10.402Z,27.55
2018-08-23T05:41:36.376Z,27.69
2018-08-23T05:44:02.337Z,27.70
2018-08-23T05:46:28.310Z,27.83
2018-08-23T05:48:54.260Z,28.16
2018-08-23T05:51:20.234Z,28.38
2018-08-23T05:53:46.202Z,28.47
2018-08-23T05:56:12.166Z,28.53
2018-08-23T05:58:38.154Z,28.76
2018-08-23T06:01:04.125Z,28.77
2018-08-23T06:03:30.108Z,28.77
2018-08-23T06:05:56.117Z,28.90
2018-08-23T06:08:22.121Z,29.00
2018-08-23T06:10:48.128Z,29.19
2018-08-23T06:13:14.081Z,29.30
2018-08-23T06:15:40.076Z,29.31
2018-08-23T06:18:06.036Z,29.29
2018-08-23T06:20:32.122Z,29.41
2018-08-23T06:22:58.085Z,29.19
2018-08-23T06:25:24.043Z,29.39
2018-08-23T06:27:50.021Z,29.48
2018-08-23T06:30:15.986Z,29.59
2018-08-23T06:32:42.156Z,29.12
2018-08-23T06:35:08.125Z,29.35
2018-08-23T06:37:34.303Z,29.65
2018-08-23T06:40:03.172Z,29.74
2018-08-23T06:42:29.313Z,30.02
2018-08-23T06:44:55.247Z,30.19
2018-08-23T06:47:21.224Z,30.27
2018-08-23T06:49:47.173Z,30.32
2018-08-23T06:52:13.155Z,30.42
2018-08-23T06:54:39.114Z,30.57
2018-08-23T06:57:05.104Z,30.65
2018-08-23T06:59:31.135Z,30.64
2018-08-23T07:01:57.100Z,30.73
2018-08-23T07:04:23.025Z,30.86
2018-08-23T07:06:49.064Z,30.93
2018-08-23T07:09:14.923Z,31.10
2018-08-23T07:11:40.916Z,31.12
2018-08-23T07:14:06.868Z,31.15
2018-08-23T07:16:32.841Z,31.04
2018-08-23T07:18:58.811Z,31.28
2018-08-23T07:21:24.797Z,31.44
2018-08-23T07:23:50.776Z,31.31
2018-08-23T07:26:16.836Z,31.46
2018-08-23T07:28:42.739Z,31.58
2018-08-23T07:31:08.687Z,31.60
2018-08-23T07:33:34.641Z,31.73
2018-08-23T07:36:00.674Z,31.85
2018-08-23T07:38:26.602Z,31.80
2018-08-23T07:40:52.594Z,31.61
2018-08-23T07:43:18.557Z,31.83
2018-08-23T07:45:44.489Z,32.77
2018-08-23T07:48:10.433Z,33.07
2018-08-23T07:50:36.421Z,33.05
2018-08-23T07:53:02.460Z,33.28
2018-08-23T07:55:28.408Z,33.21
2018-08-23T07:57:54.367Z,33.40
2018-08-23T08:00:20.333Z,33.56
2018-08-23T08:02:46.268Z,33.33
2018-08-23T08:05:12.212Z,33.26
2018-08-23T08:07:38.172Z,33.36
2018-08-23T08:10:04.142Z,33.28
2018-08-23T08:12:30.074Z,33.42
2018-08-23T08:14:56.053Z,33.35
2018-08-23T08:17:21.991Z,34.08
2018-08-23T08:19:47.969Z,35.95
2018-08-23T08:22:13.917Z,38.17
2018-08-23T08:24:39.872Z,39.49
2018-08-23T08:27:05.890Z,40.12
2018-08-23T08:29:31.825Z,40.62
2018-08-23T08:31:57.765Z,41.17
2018-08-23T08:34:23.701Z,40.77
2018-08-23T08:36:49.692Z,40.58
2018-08-23T08:39:15.700Z,38.73
2018-08-23T08:41:41.668Z,36.25
2018-08-23T08:44:07.614Z,34.65
2018-08-23T08:46:33.580Z,33.84
2018-08-23T08:48:59.559Z,33.27
2018-08-23T08:51:25.519Z,32.74
2018-08-23T08:53:51.499Z,32.38
2018-08-23T08:56:17.434Z,32.08
2018-08-23T08:58:43.376Z,32.02
2018-08-23T09:01:09.356Z,31.81
2018-08-23T09:03:35.297Z,31.59
2018-08-23T09:06:01.241Z,31.42
2018-08-23T09:08:27.190Z,31.36
2018-08-23T09:10:53.144Z,31.16
2018-08-23T09:13:19.110Z,31.25
2018-08-23T09:15:45.048Z,31.28
2018-08-23T09:18:11.004Z,31.25
2018-08-23T09:20:37.083Z,31.06
2018-08-23T09:23:02.923Z,31.12
2018-08-23T09:25:28.887Z,31.30
2018-08-23T09:27:54.850Z,31.21
2018-08-23T09:30:20.801Z,31.32
2018-08-23T09:32:46.736Z,31.20
2018-08-23T09:35:12.812Z,31.21
2018-08-23T09:37:38.680Z,31.17
2018-08-23T09:40:04.628Z,30.94
2018-08-23T09:42:30.582Z,31.09
2018-08-23T09:44:56.544Z,31.16
2018-08-23T09:47:22.499Z,31.31
2018-08-23T09:49:48.553Z,31.31
2018-08-23T09:52:14.535Z,31.07
2018-08-23T09:54:40.485Z,31.13
2018-08-23T09:57:06.442Z,31.38
2018-08-23T09:59:32.388Z,31.46
2018-08-23T10:01:58.333Z,31.40
2018-08-23T10:04:24.362Z,31.04
2018-08-23T10:06:50.237Z,31.20
2018-08-23T10:09:16.195Z,30.91
2018-08-23T10:11:42.200Z,31.10
2018-08-23T10:14:08.096Z,31.31
2018-08-23T10:16:34.035Z,31.17
2018-08-23T10:18:59.982Z,30.85
2018-08-23T10:21:25.959Z,31.00
2018-08-23T10:23:51.924Z,31.36
2018-08-23T10:26:17.866Z,31.48
2018-08-23T10:28:43.798Z,31.51
2018-08-23T10:31:09.744Z,31.56
2018-08-23T10:33:35.679Z,31.55
2018-08-23T10:36:02.427Z,31.36
2018-08-23T10:38:28.378Z,31.47
2018-08-23T10:40:54.342Z,31.48
2018-08-23T10:43:20.287Z,31.56
2018-08-23T10:45:46.239Z,31.59
2018-08-23T10:48:12.197Z,31.57
2018-08-23T10:50:38.159Z,31.59
2018-08-23T10:53:04.154Z,31.58
2018-08-23T10:55:30.092Z,31.59
2018-08-23T10:57:56.036Z,31.58
2018-08-23T11:00:21.976Z,31.56
2018-08-23T11:02:47.939Z,31.57
2018-08-23T11:05:13.865Z,31.57
2018-08-23T11:07:39.824Z,31.55
2018-08-23T11:10:05.763Z,31.56
2018-08-23T11:12:31.721Z,31.55
2018-08-23T11:14:57.679Z,31.55
2018-08-23T11:17:23.667Z,31.57
2018-08-23T11:19:49.652Z,31.56
2018-08-23T11:22:15.628Z,31.42
2018-08-23T11:24:41.572Z,31.38
2018-08-23T11:27:07.532Z,31.35
2018-08-23T11:29:33.563Z,31.22
2018-08-23T11:31:59.454Z,31.34
2018-08-23T11:34:25.378Z,31.40
2018-08-23T11:36:51.371Z,31.47
2018-08-23T11:39:17.309Z,31.06
2018-08-23T11:41:43.304Z,30.88
2018-08-23T11:44:09.269Z,31.19
2018-08-23T11:46:35.238Z,31.15
2018-08-23T11:49:01.272Z,31.21
2018-08-23T11:51:27.127Z,31.34
2018-08-23T11:53:53.100Z,31.47
2018-08-23T11:56:19.039Z,31.51
2018-08-23T11:58:44.988Z,31.42
2018-08-23T12:01:10.914Z,31.49
2018-08-23T12:03:36.887Z,31.53
2018-08-23T12:06:02.854Z,31.48
2018-08-23T12:08:28.909Z,31.52
2018-08-23T12:10:54.851Z,31.53
2018-08-23T12:13:20.814Z,31.53
2018-08-23T12:15:46.748Z,31.53
2018-08-23T12:18:12.735Z,31.55
2018-08-23T12:20:38.685Z,31.56
2018-08-23T12:23:04.624Z,31.54
2018-08-23T12:25:30.622Z,31.54
2018-08-23T12:27:56.625Z,31.55
2018-08-23T12:30:22.637Z,31.54
2018-08-23T12:32:48.600Z,31.54
2018-08-23T12:35:14.596Z,31.55
2018-08-23T12:37:40.667Z,31.55
2018-08-23T12:40:06.616Z,31.52
2018-08-23T12:42:32.624Z,31.53
2018-08-23T12:44:58.582Z,31.49
2018-08-23T12:47:24.544Z,31.53
2018-08-23T12:49:50.600Z,31.52
2018-08-23T12:52:16.489Z,31.54
2018-08-23T12:54:42.465Z,31.52
2018-08-23T12:57:08.393Z,31.49
2018-08-23T12:59:34.368Z,31.51
2018-08-23T13:02:00.409Z,31.53
2018-08-23T13:04:27.262Z,31.51
2018-08-23T13:06:53.222Z,31.50
2018-08-23T13:09:19.173Z,31.52
2018-08-23T13:11:45.133Z,31.47
2018-08-23T13:14:11.088Z,31.46
2018-08-23T13:16:37.038Z,31.47
2018-08-23T13:19:03.060Z,31.51
2018-08-23T13:21:29.026Z,31.36
2018-08-23T13:23:54.981Z,31.31
2018-08-23T13:26:20.951Z,31.15
2018-08-23T13:28:46.913Z,31.06
2018-08-23T13:31:12.889Z,30.98
2018-08-23T13:33:38.817Z,30.93
2018-08-23T13:36:04.825Z,30.84
2018-08-23T13:38:30.747Z,30.79
2018-08-23T13:40:56.705Z,30.74
2018-08-23T13:43:22.748Z,30.81
2018-08-23T13:45:48.666Z,30.95
2018-08-23T13:48:14.697Z,31.17
2018-08-23T13:50:40.636Z,31.15
2018-08-23T13:53:06.600Z,31.27
2018-08-23T13:55:32.562Z,31.30
2018-08-23T13:57:58.529Z,31.15
2018-08-23T14:00:24.468Z,31.07
2018-08-23T14:02:50.422Z,30.98
2018-08-23T14:05:16.358Z,30.94
2018-08-23T14:07:42.388Z,30.81
2018-08-23T14:10:08.313Z,30.98
2018-08-23T14:12:34.283Z,31.00
2018-08-23T14:15:00.240Z,30.94
2018-08-23T14:17:26.226Z,31.11
2018-08-23T14:19:52.183Z,31.26
2018-08-23T14:22:18.153Z,30.91
2018-08-23T14:24:44.126Z,30.97
2018-08-23T14:27:10.266Z,31.10
2018-08-23T14:29:36.448Z,31.13
2018-08-23T14:32:02.438Z,31.33
2018-08-23T14:34:28.456Z,31.39
2018-08-23T14:36:54.411Z,31.31
2018-08-23T14:39:20.350Z,31.29
2018-08-23T14:41:46.347Z,31.26
2018-08-23T14:44:12.295Z,31.32
2018-08-23T14:46:38.310Z,30.92
2018-08-23T14:49:04.261Z,31.21
2018-08-23T14:51:30.238Z,31.38
2018-08-23T14:53:56.205Z,31.46
2018-08-23T14:56:22.214Z,31.57
2018-08-23T14:58:48.177Z,31.63
2018-08-23T15:01:14.153Z,31.64
2018-08-23T15:03:40.127Z,31.52
2018-08-23T15:06:06.151Z,31.62
2018-08-23T15:08:32.155Z,31.66
2018-08-23T15:10:58.169Z,31.73
2018-08-23T15:13:24.135Z,31.68
2018-08-23T15:15:50.107Z,31.69
2018-08-23T15:18:16.100Z,31.69
2018-08-23T15:20:42.090Z,31.73
2018-08-23T15:23:08.016Z,31.71
2018-08-23T15:25:33.965Z,31.73
2018-08-23T15:27:59.999Z,31.75
2018-08-23T15:30:25.964Z,31.75
2018-08-23T15:32:51.952Z,31.74
2018-08-23T15:35:17.897Z,31.73
2018-08-23T15:37:43.936Z,31.71
2018-08-23T15:40:09.908Z,31.60
2018-08-23T15:42:35.874Z,31.36
2018-08-23T15:45:01.815Z,31.07
2018-08-23T15:47:28.102Z,31.12
2018-08-23T15:49:54.061Z,30.72
2018-08-23T15:52:20.067Z,30.27
2018-08-23T15:54:46.086Z,30.34
2018-08-23T15:57:12.043Z,30.24
2018-08-23T15:59:38.027Z,30.39
2018-08-23T16:02:03.992Z,30.85
2018-08-23T16:04:29.989Z,30.58
2018-08-23T16:06:57.044Z,30.88
2018-08-23T16:09:22.995Z,30.83
2018-08-23T16:11:48.984Z,30.95
2018-08-23T16:14:14.947Z,31.02
2018-08-23T16:16:40.881Z,31.33
2018-08-23T16:19:06.876Z,31.39
2018-08-23T16:21:32.865Z,31.36
2018-08-23T16:23:58.910Z,31.41
2018-08-23T16:26:24.894Z,31.39
2018-08-23T16:28:50.868Z,31.42
2018-08-23T16:31:16.893Z,31.48
2018-08-23T16:33:42.836Z,31.45
2018-08-23T16:36:08.908Z,31.43
2018-08-23T16:38:34.879Z,31.47
2018-08-23T16:41:00.855Z,31.41
2018-08-23T16:43:26.884Z,31.42
2018-08-23T16:45:52.898Z,31.45
2018-08-23T16:48:18.884Z,31.44
2018-08-23T16:50:44.882Z,31.30
2018-08-23T16:53:10.922Z,30.94
2018-08-23T16:55:36.957Z,30.87
2018-08-23T16:58:02.939Z,31.18
2018-08-23T17:00:28.918Z,31.29
2018-08-23T17:02:54.919Z,30.86
2018-08-23T17:05:20.926Z,30.36
2018-08-23T17:07:46.896Z,30.33
2018-08-23T17:10:12.922Z,30.63
2018-08-23T17:12:38.855Z,30.53
2018-08-23T17:15:04.813Z,30.42
2018-08-23T17:17:30.757Z,30.54
2018-08-23T17:19:56.734Z,30.91
2018-08-23T17:22:22.704Z,30.75
2018-08-23T17:24:48.787Z,30.73
2018-08-23T17:27:14.784Z,30.96
2018-08-23T17:29:40.762Z,31.02
2018-08-23T17:32:06.730Z,31.12
2018-08-23T17:34:32.711Z,31.15
2018-08-23T17:36:58.738Z,31.04
2018-08-23T17:39:24.720Z,31.06
2018-08-23T17:41:50.723Z,31.13
2018-08-23T17:44:16.691Z,31.14
2018-08-23T17:46:42.649Z,31.00
2018-08-23T17:49:08.609Z,31.01
2018-08-23T17:51:34.589Z,31.03
2018-08-23T17:54:00.598Z,30.84
2018-08-23T17:56:26.534Z,30.83
2018-08-23T17:58:52.534Z,30.84
2018-08-23T18:01:18.503Z,31.14
2018-08-23T18:03:44.687Z,31.16
2018-08-23T18:06:10.677Z,31.12
2018-08-23T18:08:36.704Z,30.91
2018-08-23T18:11:02.774Z,30.51
2018-08-23T18:13:28.760Z,30.54
2018-08-23T18:15:54.699Z,30.52
2018-08-23T18:18:20.673Z,30.76
2018-08-23T18:20:46.681Z,30.76
2018-08-23T18:23:12.697Z,30.68
2018-08-23T18:25:38.867Z,30.82
2018-08-23T18:28:04.750Z,31.02
2018-08-23T18:30:30.715Z,30.53
2018-08-23T18:32:56.644Z,29.72
2018-08-23T18:35:22.617Z,30.12
2018-08-23T18:37:48.576Z,30.60
2018-08-23T18:40:14.558Z,30.79
2018-08-23T18:42:40.572Z,30.82
2018-08-23T18:45:06.563Z,30.76
2018-08-23T18:47:32.537Z,30.89
2018-08-23T18:49:58.465Z,30.94
2018-08-23T18:52:24.418Z,30.93
2018-08-23T18:54:50.353Z,30.84
2018-08-23T18:57:16.408Z,30.79
2018-08-23T18:59:42.442Z,30.88
2018-08-23T19:02:08.393Z,30.85
2018-08-23T19:04:34.474Z,30.43
2018-08-23T19:07:00.476Z,30.53
2018-08-23T19:09:26.566Z,30.68
2018-08-23T19:11:52.555Z,30.77
2018-08-23T19:14:18.562Z,30.58
2018-08-23T19:16:44.583Z,30.61
2018-08-23T19:19:10.632Z,30.71
2018-08-23T19:21:36.683Z,30.75
2018-08-23T19:24:02.674Z,30.56
2018-08-23T19:26:28.708Z,30.60
2018-08-23T19:28:54.683Z,30.51
2018-08-23T19:31:20.687Z,30.32
2018-08-23T19:33:46.647Z,30.44
2018-08-23T19:36:12.684Z,30.18
2018-08-23T19:38:38.650Z,30.40
2018-08-23T19:41:04.632Z,30.48
2018-08-23T19:43:30.645Z,30.41
2018-08-23T19:45:56.620Z,30.60
2018-08-23T19:48:22.606Z,30.56
2018-08-23T19:50:48.601Z,30.47
2018-08-23T19:53:14.572Z,30.57
2018-08-23T19:55:42.634Z,30.63
2018-08-23T19:58:08.602Z,30.30
2018-08-23T20:00:34.661Z,30.23
2018-08-23T20:03:00.610Z,30.16
2018-08-23T20:05:26.599Z,30.41
2018-08-23T20:07:52.596Z,30.31
2018-08-23T20:10:18.558Z,30.31
2018-08-23T20:12:44.544Z,30.36
2018-08-23T20:15:10.594Z,30.45
2018-08-23T20:17:36.627Z,30.32
2018-08-23T20:20:02.593Z,30.38
2018-08-23T20:22:28.655Z,30.35
2018-08-23T20:24:54.739Z,30.39
2018-08-23T20:27:20.712Z,30.25
2018-08-23T20:29:46.680Z,29.86
2018-08-23T20:32:12.688Z,30.12
2018-08-23T20:34:38.685Z,30.34
2018-08-23T20:37:04.667Z,30.40
2018-08-23T20:39:30.712Z,30.59
2018-08-23T20:41:56.618Z,30.48
2018-08-23T20:44:22.576Z,30.60
2018-08-23T20:46:48.536Z,30.58
2018-08-23T20:49:14.478Z,30.46
2018-08-23T20:51:40.417Z,30.59
2018-08-23T20:54:06.374Z,30.59
2018-08-23T20:56:32.354Z,30.64
2018-08-23T20:58:58.309Z,30.68
2018-08-23T21:01:24.255Z,30.70
2018-08-23T21:03:50.276Z,30.48
2018-08-23T21:06:16.181Z,30.44
2018-08-23T21:08:42.120Z,30.51
2018-08-23T21:11:08.073Z,30.56
2018-08-23T21:13:34.022Z,30.56
2018-08-23T21:16:00.076Z,30.48
2018-08-23T21:18:26.035Z,30.58
2018-08-23T21:20:51.975Z,30.50
2018-08-23T21:23:17.950Z,30.38
2018-08-23T21:25:43.889Z,30.60
2018-08-23T21:28:09.818Z,30.56
2018-08-23T21:30:35.761Z,30.59
2018-08-23T21:33:01.750Z,30.60
2018-08-23T21:35:27.703Z,30.62
2018-08-23T21:37:53.661Z,30.59
2018-08-23T21:40:19.606Z,30.50
2018-08-23T21:42:45.584Z,30.40
2018-08-23T21:45:11.550Z,30.30
2018-08-23T21:47:37.507Z,30.36
2018-08-23T21:50:03.453Z,30.56
2018-08-23T21:52:29.403Z,30.64
2018-08-23T21:54:55.339Z,30.56
2018-08-23T21:57:21.316Z,30.39
2018-08-23T21:59:47.264Z,30.31
2018-08-23T22:02:13.209Z,30.56
2018-08-23T22:04:39.179Z,30.51
2018-08-23T22:07:05.137Z,30.64
2018-08-23T22:09:31.221Z,30.62
2018-08-23T22:11:57.135Z,30.51
2018-08-23T22:14:23.088Z,30.30
2018-08-23T22:16:49.021Z,30.52
2018-08-23T22:19:14.989Z,30.28
2018-08-23T22:21:40.953Z,30.48
2018-08-23T22:24:06.986Z,30.45
2018-08-23T22:26:33.024Z,30.37
2018-08-23T22:28:58.924Z,30.33
2018-08-23T22:31:24.876Z,30.33
2018-08-23T22:33:50.837Z,29.69
2018-08-23T22:36:16.794Z,29.13
2018-08-23T22:38:42.760Z,28.97
2018-08-23T22:41:08.701Z,29.35
2018-08-23T22:43:34.621Z,29.56
2018-08-23T22:46:00.572Z,29.59
2018-08-23T22:48:26.526Z,29.33
2018-08-23T22:50:52.453Z,29.64
2018-08-23T22:53:18.407Z,29.87
2018-08-23T22:55:44.433Z,29.94
2018-08-23T22:58:10.390Z,30.17
2018-08-23T23:00:36.405Z,30.18
2018-08-23T23:03:02.361Z,30.06
2018-08-23T23:05:28.315Z,30.32
2018-08-23T23:07:54.272Z,30.08
2018-08-23T23:10:20.220Z,29.86
2018-08-23T23:12:46.146Z,30.11
2018-08-23T23:15:12.109Z,30.14
2018-08-23T23:17:38.049Z,30.08
2018-08-23T23:20:04.036Z,30.08
2018-08-23T23:22:29.994Z,30.27
2018-08-23T23:24:55.942Z,30.25
2018-08-23T23:27:21.882Z,30.17
2018-08-23T23:29:47.845Z,30.07
2018-08-23T23:32:13.807Z,30.03
2018-08-23T23:34:39.807Z,29.96
2018-08-23T23:37:05.742Z,30.08
2018-08-23T23:39:31.659Z,29.53
2018-08-23T23:41:57.600Z,29.19
2018-08-23T23:44:23.555Z,29.40
2018-08-23T23:46:49.483Z,29.62
2018-08-23T23:49:15.421Z,29.61
2018-08-23T23:51:41.353Z,28.90
2018-08-23T23:54:07.304Z,28.91
2018-08-23T23:56:33.280Z,28.76
2018-08-23T23:58:59.227Z,28.89
